Ride Results

STER Fonthill (20-09-2014)
Ride distance: 80.0 km

Outcomes - STER Fonthill (20-09-2014)
Division No. of Entries Retired / DNE Completed Withdrawn Ineligible V/O Percentage Completed
HW 8 - 6 2 - - 75.00%
MW 15 - 9 1 - 5 60.00%
LW 13 - 11 - - 2 84.62%
JN 10 - 10 - - - 100.00%
Totals 46 - 36 3 - 7 78.26%
Results - STER Fonthill (20-09-2014)
No. Rider Horse Place Time Leg Speeds Total
Km/Hr
H/R bpm
Heavyweight
199 Dennis Foley Jnr Sienna Ekzotica 1 (BC) 4:04:00 18.8, 20.5 19.67 36, 49, 50 (Avg:49)
194 Robby Walsh Free Spirit Czar 2 4:15:00 19.1, 18.4 18.82 37, 50, 50 (Avg:50)
38 Tony Purton Beer Street Bewitched 3 4:30:00 17.3, 18.1 17.78 36, 44, 46 (Avg:45)
G Greg Henry Bellawongarah Beau 4 6:22:00 15.0, 10.7 12.57 40, 53, 59 (Avg:56)
18 Jai Ingram Orion 5 6:48:00 11.7, 11.7 11.76 44, 48, 58 (Avg:53)
176 Greg Burford Broken Heart Warrior 6 6:55:00 11.8, 11.3 11.57 45, 47, 49 (Avg:48)
205 Ashleigh Green Tobin Widthdrawn L1 0:00:00 - - 42, 44 (Avg:44)
29 Nicole Huxtable Kalody Park Celebration Widthdrawn L1 0:00:00 - - 43, 52 (Avg:52)
Middleweight
15 Sonia Brown-Cordell Lynn-Roy Sharik 1 (BC) 4:16:00 18.8, 18.6 18.75 38, 44, 48 (Avg:46)
136 Kaye Mitchell Beer Street Bluewitch 2 4:30:00 17.3, 18.1 17.78 33, 47, 49 (Avg:48)
180 Nicole Ford Shah Ha 3 5:32:00 15.5, 13.4 14.46 29, 42, 45 (Avg:43)
138 Kristen Robertson Kerewong Mingus 3 5:32:00 15.4, 13.5 14.46 39, 47, 60 (Avg:53)
101 Wendy Rand Shayelle Chocolate 5 6:04:00 13.0, 13.3 13.19 36, 43, 49 (Avg:46)
219 Robert Crowe Tierview Salama 6 6:19:00 12.7, 12.5 12.66 40, 48, 51 (Avg:49)
69 Tracey Wyllie Jaggah Ka 7 6:22:00 12.1, 13.0 12.57 35, 44, 56 (Avg:50)
209 Hussain Ali AlMarzooqi Indy 8 6:29:00 11.4, 13.3 12.34 41, 48, 55 (Avg:51)
278 Gregg Fields Castlebar Baik 9 6:47:00 11.7, 11.8 11.79 35, 35, 50 (Avg:42)
216 David Evelyn Kalody Park Eclipse Metabolics moderate L2 0:00:00 19.8, 17.1 - 40, 46, 54 (Avg:50)
262 Andrew Miles Beau Heart Rate L2 0:00:00 11.5, 8.7 - 37, 53, 71 (Avg:62)
114 Tara Nicklason Wongawol Legend Heart Rate L2 0:00:00 13.0, 13.2 - 39, 48, 64 (Avg:56)
300 Raelene Smith Ben Heart Rate L2 0:00:00 11.6, 7.1 - 38, 45, 63 (Avg:54)
57 Tania Jago Undurra Max Widthdrawn L1 0:00:00 - - 46, 55 (Avg:55)
165 Danielle Taylor Karisma Painted Rascal Heart Rate L1 0:00:00 19.8 - 47, 60 (Avg:60)
Lightweight
203 Ellie Woodhouse Cognac 1 (BC) 3:52:00 19.5, 22.0 20.69 43, 46, 47 (Avg:46)
150 Emily Shadbolt Tanbark Banjo 2 4:18:00 17.0, 20.5 18.60 32, 50, 42 (Avg:46)
231 Andrew Matthews Shemali Saladin 3 4:21:00 18.8, 17.9 18.39 35, 49, 49 (Avg:49)
42 Dianne Walsh Kalkadoon Malachi 4 4:35:00 17.2, 17.6 17.45 33, 44, 46 (Avg:45)
253 Kelly Woodhouse Malricia Delilah 5 5:14:00 17.0, 13.8 15.29 41, 44, 52 (Avg:48)
100 Trish Smith Beaucheval Akhiran 6 6:05:01 14.4, 12.0 13.15 34, 45, 57 (Avg:51)
79 Samantha Sward Lockleigh Park Lucky Martin 7 6:19:00 12.1, 13.2 12.66 42, 46, 53 (Avg:49)
K Karen Fields Bara Park Imal 8 6:49:00 11.7, 11.7 11.74 37, 47, 52 (Avg:49)
252 Mindy Davies Pioneer Park Theatric 9 7:10:00 11.4, 10.8 11.16 38, 43, 50 (Avg:46)
192 Christal Rizk Castlebar Khafif 9 7:10:00 11.4, 10.9 11.16 38, 44, 52 (Avg:48)
22 Natasha Willemse Castlebar Nabraska 9 7:10:00 11.4, 10.8 11.16 35, 39, 54 (Avg:46)
235 Jan Clement Kalody Park Empire Blaze Lame L2 0:00:00 13.0, 13.2 - 37, 45, 50 (Avg:47)
90 Angela Hawks Ra-Anji Fadel Heart Rate L2 0:00:00 11.7, 11.7 - 44, 50, 62 (Avg:56)
Junior
190 Alice Mitchell Beer Street Banshee 1 3:59:00 19.6, 20.5 20.08 46, 49, 52 (Avg:50)
249 Corey Foley DJ Ernie 2 (BC) 4:01:00 18.8, 21.0 19.92 37, 44, 56 (Avg:50)
127 Jaz Hutchins Boogie 2 4:01:00 19.1, 20.6 19.92 36, 43, 52 (Avg:47)
105 Brittany Farrell Woodsong Zadonk 4 6:20:00 12.7, 12.4 12.63 36, 46, 46 (Avg:46)
77 Brett Lockhart Lord Stuart of Seven Oaks 4 6:20:00 12.1, 13.1 12.63 42, 48, 55 (Avg:51)
106 Kirsty Sward Neilly Altarj Sir Jasper 4 6:20:00 12.7, 12.4 12.63 35, 48, 48 (Avg:48)
74 Felicity Perry Awarran Park Star Shadow 7 6:22:00 12.1, 13.0 12.57 46, 44, 57 (Avg:50)
310 Brandon Foley Johny 8 6:29:00 11.4, 13.3 12.34 43, 47, 50 (Avg:48)
285 Liam Davies Taghrooda 9 6:55:00 11.8, 11.3 11.57 37, 54, 51 (Avg:52)
286 Pyper Page Faybein Lea 9 6:55:00 11.8, 11.3 11.57 33, 44, 43 (Avg:43)